Latest Weather Observations for Renmark Airport

IDS60801

Issued at 9:31 am CDT Wednesday 29 March 2017 (issued every 30 minutes, with the page automatically refreshed every 10 minutes)

About weather observations | Map of weather stations | Latest weather observations for SA | Other Formats
Station Details ID: 024048 Name: RENMARK AERO Lat: -34.20 Lon: 140.68 Height: 31.5 m
Data from the previous 72 hours. | See also: Recent months at Renmark Airport
Date/Time
CDT
Temp
°C
App
Temp
°C
Dew
Point
°C
Rel
Hum
%
Delta-T
°C
Wind Press
QNH
hPa
Press
MSL
hPa
Rain since
9am
mm
Dir  Spd
km/h
Gust
km/h
Spd
kts
Gust
kts
29/09:30am 17.9 16.8 10.8 63 3.8 NE 7 6 4 3 1012.7 1012.6 -
29/09:00am 16.9 15.8 10.1 64 3.6 ENE 6 9 3 5 1012.5 1012.4 0.0
29/08:30am 15.3 15.3 9.9 70 2.8 CALM 0 0 0 0 1012.2 1012.1 0.0
29/08:00am 12.9 12.9 9.9 82 1.5 CALM 0 0 0 0 1011.8 1011.7 0.0
29/07:30am 10.1 8.3 8.0 87 1.0 SW 7 7 4 4 1011.5 1011.4 0.0
29/07:00am 10.8 9.0 7.3 79 1.7 SSW 6 7 3 4 1011.0 1010.9 0.0
29/06:30am 11.3 9.7 8.9 85 1.2 S 7 7 4 4 1010.8 1010.7 0.0
29/06:00am 12.0 10.6 9.0 82 1.5 SSE 6 7 3 4 1010.6 1010.5 0.0
29/05:30am 12.1 10.5 8.0 76 2.0 SSE 6 9 3 5 1010.6 1010.5 0.0
29/05:00am 13.6 12.9 10.2 80 1.8 SSE 4 7 2 4 1010.5 1010.4 0.0
29/04:30am 13.5 12.1 9.6 77 2.0 S 7 7 4 4 1010.6 1010.5 0.0
29/04:00am 14.4 13.1 9.8 74 2.4 S 7 9 4 5 1011.0 1010.9 0.0
29/03:30am 15.4 14.3 10.0 70 2.8 SSE 6 9 3 5 1010.8 1010.7 0.0
29/03:00am 15.8 14.4 9.7 67 3.2 SSE 7 9 4 5 1011.2 1011.1 0.0
29/02:30am 16.5 16.5 9.9 65 3.5 CALM 0 7 0 4 1011.3 1011.2 0.0
29/02:00am 16.9 14.7 9.3 61 4.0 S 11 17 6 9 1011.7 1011.6 0.0
29/01:30am 17.0 14.5 8.4 57 4.4 SSW 11 15 6 8 1012.0 1011.9 0.0
29/01:00am 17.1 14.1 7.7 54 4.7 SW 13 15 7 8 1012.2 1012.1 0.0
29/12:30am 16.9 12.8 6.4 50 5.2 WSW 17 24 9 13 1012.3 1012.2 0.0
29/12:00am 13.4 11.8 2.6 48 4.8 CALM 0 0 0 0 1012.2 1012.1 0.0
 
Date/Time
CDT
Temp
°C
App
Temp
°C
Dew
Point
°C
Rel
Hum
%
Delta-T
°C
Wind Press
QNH
hPa
Press
MSL
hPa
Rain since
9am
mm
Dir  Spd
km/h
Gust
km/h
Spd
kts
Gust
kts
28/11:30pm 13.8 12.4 3.6 50 4.6 CALM 0 0 0 0 1012.4 1012.3 0.0
28/11:00pm 14.5 13.1 3.3 47 5.1 CALM 0 0 0 0 1012.5 1012.4 0.0
28/10:30pm 15.0 13.5 3.2 45 5.3 CALM 0 0 0 0 1012.6 1012.5 0.0
28/10:00pm 15.6 14.0 2.7 42 5.8 CALM 0 0 0 0 1012.7 1012.6 0.0
28/09:30pm 16.5 15.1 3.6 42 6.0 CALM 0 0 0 0 1012.5 1012.4 0.0
28/09:00pm 19.1 18.2 6.2 43 6.4 CALM 0 0 0 0 1012.5 1012.4 0.0
28/08:30pm 18.9 17.6 4.3 38 7.0 CALM 0 0 0 0 1012.3 1012.2 0.0
28/08:00pm 20.5 19.3 4.5 35 7.8 CALM 0 0 0 0 1012.2 1012.1 0.0
28/07:30pm 23.2 21.1 5.6 32 8.9 SSW 6 7 3 4 1012.3 1012.2 0.0
28/07:00pm 24.5 22.1 5.3 29 9.7 SSW 7 9 4 5 1012.2 1012.1 0.0
28/06:30pm 25.8 23.1 5.4 27 10.4 WSW 9 13 5 7 1012.0 1011.9 0.0
28/06:00pm 26.1 22.5 5.1 26 10.7 WSW 13 19 7 10 1012.0 1011.9 0.0
28/05:30pm 26.2 23.4 5.2 26 10.7 WSW 9 22 5 12 1012.0 1011.9 0.0
28/05:00pm 26.2 22.3 5.2 26 10.7 WSW 15 20 8 11 1012.2 1012.1 0.0
28/04:30pm 25.9 22.9 6.0 28 10.3 W 11 19 6 10 1012.4 1012.3 0.0
28/04:00pm 26.0 22.4 6.6 29 10.1 WSW 15 22 8 12 1012.8 1012.7 0.0
28/03:30pm 25.7 22.7 5.8 28 10.2 W 11 19 6 10 1013.2 1013.1 0.0
28/03:00pm 25.3 21.5 6.0 29 9.9 WSW 15 24 8 13 1013.5 1013.4 0.0
28/02:30pm 25.1 21.8 6.3 30 9.7 W 13 24 7 13 1013.9 1013.8 0.0
28/02:00pm 24.6 20.6 6.8 32 9.3 WSW 17 26 9 14 1014.3 1014.2 0.0
28/01:30pm 23.7 20.0 7.8 36 8.4 SW 17 24 9 13 1014.8 1014.7 0.0
28/01:00pm 23.5 20.6 8.0 37 8.2 W 13 24 7 13 1015.3 1015.2 0.0
28/12:30pm 22.7 19.9 8.4 40 7.6 WSW 13 22 7 12 1015.9 1015.8 0.0
28/12:00pm 21.9 19.5 8.8 43 6.9 W 11 22 6 12 1016.3 1016.2 0.0
28/11:30am 21.4 19.4 8.7 44 6.7 WSW 9 17 5 9 1016.5 1016.4 0.0
28/11:00am 21.0 18.6 8.6 45 6.5 NW 11 19 6 10 1016.9 1016.8 0.0
28/10:30am 20.2 18.2 10.0 52 5.5 WSW 11 17 6 9 1017.1 1017.0 0.0
28/10:00am 19.0 17.9 10.6 58 4.5 W 7 13 4 7 1017.1 1017.0 0.0
28/09:30am 18.4 18.1 10.0 58 4.5 S 2 7 1 4 1017.0 1016.9 0.0
28/09:00am 16.6 16.6 9.8 64 3.6 CALM 0 0 0 0 1016.7 1016.6 0.0
28/08:30am 14.6 14.6 9.8 73 2.5 CALM 0 0 0 0 1016.5 1016.4 0.0
28/08:00am 10.8 9.3 6.7 76 1.9 W 4 6 2 3 1016.4 1016.3 0.0
28/07:30am 9.0 6.7 4.8 75 1.9 WSW 6 7 3 4 1016.4 1016.3 0.0
28/07:00am 8.9 6.6 5.5 79 1.5 WSW 7 9 4 5 1016.4 1016.3 0.0
28/06:30am 9.3 7.2 5.9 79 1.6 W 6 7 3 4 1016.3 1016.2 0.0
28/06:00am 9.4 7.2 6.1 80 1.5 WSW 7 9 4 5 1016.1 1016.0 0.0
28/05:30am 9.7 7.6 5.9 77 1.7 W 6 7 3 4 1015.9 1015.8 0.0
28/05:00am 10.0 7.9 5.6 74 2.0 W 6 7 3 4 1015.8 1015.7 0.0
28/04:56am 9.9 7.4 4.9 71 2.3 W 7 9 4 5 1015.8 1015.7 0.0
28/04:37am 10.0 7.8 5.4 73 2.1 W 6 11 3 6 1015.8 1015.7 0.0
28/04:30am 9.9 7.5 4.3 68 2.5 WSW 6 7 3 4 1015.8 1015.7 0.0
28/04:00am 9.9 7.7 3.6 65 2.8 WNW 4 6 2 3 1015.9 1015.8 0.0
28/03:30am 10.4 9.0 3.4 62 3.1 CALM 0 0 0 0 1015.8 1015.7 0.0
28/03:00am 10.7 8.6 3.7 62 3.1 WSW 4 7 2 4 1016.0 1015.9 0.0
28/02:30am 11.4 10.1 4.2 61 3.2 CALM 0 0 0 0 1016.1 1016.0 0.0
28/02:00am 11.8 10.3 4.8 62 3.2 WSW 2 6 1 3 1016.3 1016.2 0.0
28/01:30am 12.5 10.2 4.7 59 3.6 WSW 6 7 3 4 1016.4 1016.3 0.0
28/01:00am 13.5 12.1 5.4 58 3.8 SW 2 6 1 3 1016.4 1016.3 0.0
28/12:30am 14.7 12.5 6.3 57 4.0 SW 7 9 4 5 1016.3 1016.2 0.0
28/12:00am 16.0 13.7 7.5 57 4.2 SSW 9 11 5 6 1016.2 1016.1 0.0
 
Date/Time
CDT
Temp
°C
App
Temp
°C
Dew
Point
°C
Rel
Hum
%
Delta-T
°C
Wind Press
QNH
hPa
Press
MSL
hPa
Rain since
9am
mm
Dir  Spd
km/h
Gust
km/h
Spd
kts
Gust
kts
27/11:30pm 17.1 14.7 7.2 52 4.9 S 9 13 5 7 1016.1 1016.0 0.0
27/11:00pm 18.2 15.0 7.0 48 5.6 S 13 17 7 9 1015.9 1015.8 0.0
27/10:30pm 18.9 15.7 6.7 45 6.1 SSW 13 17 7 9 1015.8 1015.7 0.0
27/10:00pm 19.2 16.2 6.0 42 6.5 SSW 11 13 6 7 1015.6 1015.4 0.0
27/09:30pm 19.5 16.7 5.2 39 7.0 S 9 11 5 6 1015.2 1015.1 0.0
27/09:00pm 20.5 17.2 4.5 35 7.8 S 11 15 6 8 1015.0 1014.9 0.0
27/08:30pm 22.0 17.9 2.2 27 9.3 SW 13 17 7 9 1014.6 1014.5 0.0
27/08:00pm 23.0 18.8 1.4 24 10.1 SW 13 22 7 12 1014.1 1014.0 0.0
27/07:30pm 24.1 18.8 1.7 23 10.6 SW 19 26 10 14 1013.7 1013.6 0.0
27/07:00pm 25.1 19.1 1.3 21 11.2 SSW 22 32 12 17 1013.2 1013.1 0.0
27/06:30pm 26.0 21.3 5.0 26 10.7 SW 19 26 10 14 1012.7 1012.6 0.0
27/06:00pm 26.2 20.9 5.2 26 10.7 SSW 22 32 12 17 1012.7 1012.6 0.0
27/05:30pm 26.7 22.0 5.1 25 11.0 SSW 19 26 10 14 1012.5 1012.4 0.0
27/05:00pm 27.0 21.1 4.1 23 11.5 SW 24 39 13 21 1012.3 1012.2 0.0
27/04:30pm 26.8 20.8 5.1 25 11.1 SW 26 37 14 20 1012.4 1012.3 0.0
27/04:00pm 26.9 21.8 4.0 23 11.5 SSW 20 30 11 16 1012.3 1012.2 0.0
27/03:30pm 26.9 21.3 5.2 25 11.1 SW 24 41 13 22 1012.2 1012.1 0.0
27/03:00pm 27.2 21.0 6.0 26 11.1 SSW 28 41 15 22 1012.4 1012.3 0.0
27/02:30pm 27.3 22.2 7.7 29 10.5 SW 24 44 13 24 1012.7 1012.6 0.0
27/02:00pm 27.4 22.6 8.8 31 10.2 SSW 24 39 13 21 1013.1 1013.0 0.0
27/01:30pm 27.2 22.7 10.0 34 9.6 SW 24 37 13 20 1013.0 1012.9 0.0
27/01:00pm 26.3 21.4 10.0 36 9.1 SW 26 37 14 20 1013.1 1013.0 0.0
27/12:43pm 26.2 20.0 9.5 35 9.2 SW 32 50 17 27 1013.2 1013.1 0.0
27/12:30pm 26.5 20.6 8.9 33 9.6 SW 30 41 16 22 1013.0 1012.9 0.0
27/12:00pm 26.9 20.3 7.9 30 10.2 SW 32 54 17 29 1012.5 1012.4 0.0
27/11:43am 28.4 22.4 8.7 29 10.8 SW 30 48 16 26 1012.2 1012.1 0.0
27/11:30am 27.8 21.5 9.1 31 10.3 SW 32 46 17 25 1012.2 1012.1 0.0
27/11:00am 27.4 22.0 11.0 36 9.3 WSW 30 43 16 23 1011.8 1011.7 0.0
27/10:58am 27.7 21.8 10.4 34 9.7 WSW 32 50 17 27 1011.8 1011.7 0.0
27/10:42am 26.5 20.8 11.8 40 8.4 WSW 33 50 18 27 1011.6 1011.5 0.0
27/10:36am 27.0 21.6 12.3 40 8.5 WSW 32 50 17 27 1011.6 1011.5 0.0
27/10:30am 27.0 21.6 12.3 40 8.5 WSW 32 43 17 23 1011.5 1011.4 0.0
27/10:00am 26.5 24.5 15.5 50 6.7 WSW 20 33 11 18 1011.2 1011.1 0.0
27/09:30am 25.1 23.5 16.5 59 5.3 SW 20 30 11 16 1010.6 1010.5 0.0
27/09:00am 26.2 23.9 16.7 56 5.9 SW 24 37 13 20 1010.4 1010.3 0.0
27/08:30am 24.8 21.4 16.8 61 4.9 WSW 30 41 16 22 1009.3 1009.2 0.0
27/08:00am 25.5 20.8 14.9 52 6.4 WSW 33 46 18 25 1008.8 1008.7 0.0
27/07:41am 28.0 22.8 10.2 33 10.0 W 28 46 15 25 1008.0 1007.9 0.0
27/07:30am 27.5 24.6 9.8 33 9.9 WNW 15 20 8 11 1007.3 1007.2 0.0
27/07:00am 29.0 25.2 9.7 30 10.8 NW 20 32 11 17 1006.5 1006.4 0.0
27/06:30am 28.5 24.3 11.1 34 10.0 N 24 30 13 16 1005.3 1005.2 0.0
27/06:00am 28.4 23.8 11.0 34 10.0 NNE 26 33 14 18 1004.8 1004.7 0.0
27/05:30am 27.9 23.8 11.5 36 9.4 NNE 24 32 13 17 1004.9 1004.8 0.0
27/05:00am 27.2 23.4 11.3 37 9.1 NNE 22 28 12 15 1005.1 1005.0 0.0
27/04:30am 27.2 23.8 11.3 37 9.1 NNE 20 30 11 16 1005.5 1005.4 0.0
27/04:00am 26.9 23.7 11.4 38 8.8 NNE 19 22 10 12 1005.7 1005.6 0.0
27/03:30am 27.3 24.1 11.3 37 9.2 NNE 19 24 10 13 1006.1 1006.0 0.0
27/03:00am 27.6 24.2 11.2 36 9.4 NNE 20 28 11 15 1006.5 1006.4 0.0
27/02:30am 27.7 24.6 11.7 37 9.2 NNE 19 28 10 15 1006.8 1006.7 0.0
27/02:00am 26.7 24.6 12.4 41 8.3 NNE 15 19 8 10 1007.0 1006.9 0.0
27/01:30am 27.1 25.0 12.3 39 8.6 NE 15 19 8 10 1007.2 1007.1 0.0
27/01:00am 28.7 25.7 12.6 37 9.4 NNE 20 24 11 13 1007.5 1007.4 0.0
27/12:30am 28.2 25.9 12.9 38 9.0 NE 17 20 9 11 1007.8 1007.7 0.0
27/12:00am 28.5 26.1 12.8 38 9.2 NE 17 20 9 11 1008.2 1008.1 0.0
 
Date/Time
CDT
Temp
°C
App
Temp
°C
Dew
Point
°C
Rel
Hum
%
Delta-T
°C
Wind Press
QNH
hPa
Press
MSL
hPa
Rain since
9am
mm
Dir  Spd
km/h
Gust
km/h
Spd
kts
Gust
kts
26/11:30pm 28.6 26.5 12.5 37 9.4 NE 15 24 8 13 1008.4 1008.3 0.0
26/11:00pm 29.3 26.8 12.3 35 9.9 NE 17 24 9 13 1008.5 1008.4 0.0
26/10:30pm 29.7 27.5 12.2 34 10.3 ENE 15 19 8 10 1008.7 1008.6 0.0
26/10:00pm 30.1 27.5 12.1 33 10.5 ENE 17 20 9 11 1008.7 1008.6 0.0
26/09:30pm 30.2 28.0 12.1 32 10.6 ENE 15 19 8 10 1008.8 1008.7 0.0
26/09:00pm 29.9 28.0 11.9 33 10.5 ENE 13 17 7 9 1008.8 1008.7 0.0
26/08:30pm 30.2 28.8 12.1 32 10.6 ENE 11 13 6 7 1008.8 1008.7 0.0
26/08:00pm 30.6 29.3 12.5 33 10.7 ENE 11 15 6 8 1008.8 1008.7 0.0
26/07:30pm 31.5 29.4 12.3 31 11.4 ENE 15 17 8 9 1008.6 1008.5 0.0
26/07:00pm 33.2 31.6 11.7 27 12.7 E 11 15 6 8 1008.7 1008.6 0.0
26/06:30pm 34.5 32.6 10.4 23 14.0 E 11 15 6 8 1008.7 1008.6 0.0
26/06:00pm 34.6 32.5 9.8 22 14.3 ESE 11 17 6 9 1008.9 1008.8 0.0
26/05:30pm 34.7 33.2 10.5 23 14.1 E 9 17 5 9 1009.0 1008.9 0.0
26/05:00pm 34.5 32.4 9.7 22 14.3 ENE 11 15 6 8 1009.1 1009.0 0.0
26/04:30pm 34.7 32.8 10.5 23 14.1 ENE 11 17 6 9 1009.4 1009.3 0.0
26/04:00pm 33.9 33.1 12.8 28 12.7 NE 9 15 5 8 1009.6 1009.5 0.0
26/03:30pm 33.3 32.7 13.4 30 12.1 NE 9 15 5 8 1009.9 1009.8 0.0
26/03:00pm 32.7 31.4 13.8 31 11.5 NE 13 17 7 9 1010.4 1010.3 0.0
26/02:30pm 31.6 30.9 14.3 35 10.6 NNE 11 17 6 9 1010.7 1010.6 0.0
26/02:00pm 30.8 29.7 14.4 36 10.0 N 13 17 7 9 1011.4 1011.3 0.0
26/01:30pm 30.7 30.9 14.3 36 10.0 NNE 6 13 3 7 1012.0 1011.9 0.0
26/01:00pm 29.2 29.5 15.0 42 8.7 NE 7 15 4 8 1012.6 1012.5 0.0
26/12:30pm 28.2 28.9 15.5 46 7.8 ESE 6 11 3 6 1013.0 1012.9 0.0
26/12:00pm 26.9 26.9 15.3 49 7.1 E 9 13 5 7 1013.2 1013.1 0.0
26/11:30am 25.5 25.5 15.2 53 6.2 E 9 13 5 7 1013.3 1013.2 0.0
26/11:00am 24.4 24.9 15.1 56 5.6 E 6 9 3 5 1013.7 1013.6 0.0
26/10:30am 23.0 23.3 15.1 61 4.7 ESE 7 11 4 6 1013.8 1013.7 0.0
26/10:00am 22.3 21.9 15.2 64 4.2 E 11 15 6 8 1013.4 1013.3 0.0

Other Formats:

Comma delimited format used in spreadsheet applications
http://www.bom.gov.au/fwo/IDS60801/IDS60801.95687.axf

JavaScript Object Notation format (JSON) in row-major order
http://www.bom.gov.au/fwo/IDS60801/IDS60801.95687.json